Time;durP1;ratioP1;P1;durP2;ratioP2;P2;SDS_P1;SDS_P2;PMS_P1;PMS_P2;Temp;Humidity;BMP_temperature;BMP_pressure;BME280_temperature;BME280_humidity;BME280_pressure;Samples;Min_cycle;Max_cycle;Signal;HPM_P1;HPM_P2
2023/05/05 00:01:16;;;;;;;15.10;10.05;;;8.30;1.00;;;;;;5072552;28;20476;-59
2023/05/05 00:03:42;;;;;;;13.18;9.18;;;8.30;1.00;;;;;;5072239;28;20124;-58
2023/05/05 00:06:07;;;;;;;13.40;10.70;;;8.30;1.00;;;;;;5070954;28;20517;-58
2023/05/05 00:08:33;;;;;;;17.33;12.82;;;8.30;1.00;;;;;;5072309;28;20073;-58
2023/05/05 00:10:59;;;;;;;19.73;12.38;;;8.40;1.00;;;;;;5072232;28;20106;-58
2023/05/05 00:13:24;;;;;;;20.70;13.30;;;8.50;1.00;;;;;;5072050;28;20110;-58
2023/05/05 00:15:52;;;;;;;18.30;12.95;;;8.50;1.00;;;;;;5072071;28;20032;-58
2023/05/05 00:18:18;;;;;;;18.45;10.57;;;8.50;1.00;;;;;;5072167;28;20048;-59
2023/05/05 00:20:47;;;;;;;20.42;7.90;;;8.50;1.00;;;;;;5072047;28;20021;-57
2023/05/05 00:23:14;;;;;;;8.80;7.00;;;8.50;1.00;;;;;;5070774;28;20036;-59
2023/05/05 00:25:40;;;;;;;10.57;8.18;;;8.30;1.00;;;;;;5070851;28;20036;-58
2023/05/05 00:28:06;;;;;;;12.35;8.77;;;8.10;1.00;;;;;;5071953;28;20031;-54
2023/05/05 00:30:33;;;;;;;16.60;9.27;;;8.10;1.00;;;;;;5072012;28;20020;-56
2023/05/05 00:32:58;;;;;;;15.98;10.52;;;8.00;1.00;;;;;;5071970;28;20019;-57
2023/05/05 00:35:25;;;;;;;16.02;9.73;;;8.00;1.00;;;;;;5071486;28;20459;-58
2023/05/05 00:37:51;;;;;;;23.00;10.02;;;7.90;1.00;;;;;;5072039;28;20050;-57
2023/05/05 00:40:17;;;;;;;13.65;9.60;;;7.80;1.00;;;;;;5071926;28;20028;-58
2023/05/05 00:42:49;;;;;;;14.98;9.48;;;7.70;1.00;;;;;;5071792;28;20028;-58
2023/05/05 00:45:16;;;;;;;14.38;9.85;;;7.70;1.00;;;;;;5071683;28;20475;-56
2023/05/05 00:47:46;;;;;;;13.90;10.38;;;7.70;1.00;;;;;;5071719;28;20036;-58
2023/05/05 00:50:21;;;;;;;17.38;10.55;;;7.60;1.00;;;;;;5071566;28;20020;-58
2023/05/05 00:52:47;;;;;;;13.45;10.90;;;7.50;6.60;;;;;;5071910;28;20029;-57
2023/05/05 00:55:12;;;;;;;20.60;11.38;;;7.50;2.70;;;;;;5071539;28;20036;-58
2023/05/05 00:57:38;;;;;;;15.90;11.77;;;7.50;15.20;;;;;;5071640;28;20062;-56
2023/05/05 01:00:05;;;;;;;12.38;9.35;;;7.40;9.60;;;;;;5070278;28;20527;-57
2023/05/05 01:02:30;;;;;;;15.30;10.23;;;7.40;11.80;;;;;;5071389;28;20040;-58
2023/05/05 01:04:57;;;;;;;23.77;9.82;;;7.30;13.90;;;;;;5070875;28;20020;-57
2023/05/05 01:07:45;;;;;;;11.88;8.45;;;7.10;19.50;;;;;;5071350;28;20043;-57
2023/05/05 01:10:30;;;;;;;14.10;8.00;;;7.00;25.90;;;;;;5051495;28;20032;-58
2023/05/05 01:13:21;;;;;;;12.35;8.98;;;7.00;35.20;;;;;;5071585;28;20020;-58
2023/05/05 01:16:03;;;;;;;11.50;8.35;;;6.90;38.00;;;;;;5071397;28;20487;-59
2023/05/05 01:18:43;;;;;;;15.70;9.68;;;6.90;38.60;;;;;;5071430;28;20031;-57
2023/05/05 01:21:40;;;;;;;18.42;9.95;;;6.90;37.50;;;;;;5071497;28;20021;-57
2023/05/05 01:24:19;;;;;;;12.23;9.93;;;6.90;38.90;;;;;;5071447;28;20368;-58
2023/05/05 01:27:09;;;;;;;13.00;9.68;;;6.90;38.70;;;;;;5071564;28;20020;-57
2023/05/05 01:29:46;;;;;;;13.15;9.43;;;6.80;35.60;;;;;;5069903;28;20025;-57
2023/05/05 01:32:14;;;;;;;12.38;9.43;;;6.70;37.90;;;;;;5071245;28;20176;-55
2023/05/05 01:34:52;;;;;;;13.02;9.57;;;6.70;47.00;;;;;;5071173;28;20264;-58
2023/05/05 01:37:24;;;;;;;12.82;9.43;;;6.70;33.50;;;;;;5071301;28;20021;-57
2023/05/05 01:39:58;;;;;;;11.98;8.25;;;6.70;32.70;;;;;;5071496;28;20551;-58
2023/05/05 01:42:25;;;;;;;13.90;8.93;;;6.60;36.40;;;;;;5070986;28;20063;-57
2023/05/05 01:44:53;;;;;;;13.43;9.88;;;6.50;42.30;;;;;;5070022;28;20029;-57
2023/05/05 01:47:21;;;;;;;13.20;10.30;;;6.50;44.70;;;;;;5069823;28;20017;-56
2023/05/05 01:49:49;;;;;;;13.02;10.00;;;6.40;48.90;;;;;;5071287;28;20021;-56
2023/05/05 01:52:16;;;;;;;23.25;10.20;;;6.50;49.90;;;;;;5071145;28;20017;-57
2023/05/05 01:54:44;;;;;;;13.43;9.35;;;6.40;43.50;;;;;;5070862;28;20409;-58
2023/05/05 01:57:11;;;;;;;14.55;10.48;;;6.40;45.80;;;;;;5071161;28;20063;-57
2023/05/05 01:59:38;;;;;;;12.95;9.75;;;6.40;40.70;;;;;;5071193;28;20380;-57
2023/05/05 02:02:07;;;;;;;16.40;9.45;;;6.30;49.10;;;;;;5069459;28;20051;-57
2023/05/05 02:04:37;;;;;;;20.42;9.50;;;6.20;50.20;;;;;;5070949;28;20024;-56
2023/05/05 02:07:05;;;;;;;12.55;8.63;;;6.20;54.80;;;;;;5071004;28;20029;-57
2023/05/05 02:09:32;;;;;;;10.77;9.23;;;6.20;54.90;;;;;;5071102;28;20058;-58
2023/05/05 02:12:01;;;;;;;15.07;9.82;;;6.20;50.50;;;;;;5071095;28;20020;-57
2023/05/05 02:14:30;;;;;;;16.08;9.27;;;6.10;49.20;;;;;;5070962;28;20510;-59
2023/05/05 02:16:56;;;;;;;17.63;9.48;;;6.20;53.60;;;;;;5072396;28;20645;-56
2023/05/05 02:19:30;;;;;;;12.95;9.05;;;6.10;50.70;;;;;;5074402;28;20021;-59
2023/05/05 02:21:57;;;;;;;9.75;8.38;;;6.10;50.10;;;;;;5074508;28;20089;-57
2023/05/05 02:24:24;;;;;;;13.20;8.88;;;6.00;52.40;;;;;;5074685;28;20021;-56
2023/05/05 02:26:52;;;;;;;13.35;8.02;;;6.00;53.90;;;;;;5074359;28;20029;-59
2023/05/05 02:29:31;;;;;;;13.63;10.50;;;6.00;56.70;;;;;;5074469;28;20025;-57
2023/05/05 02:32:06;;;;;;;18.77;10.00;;;6.00;58.20;;;;;;5074142;28;20021;-58
2023/05/05 02:34:36;;;;;;;15.23;10.07;;;5.80;60.50;;;;;;5074154;28;20035;-56
2023/05/05 02:37:05;;;;;;;9.73;8.57;;;5.80;65.60;;;;;;5074175;28;20025;-56
2023/05/05 02:39:40;;;;;;;20.08;10.98;;;5.90;67.50;;;;;;5074229;28;20024;-58
2023/05/05 02:42:08;;;;;;;12.02;9.38;;;5.90;60.90;;;;;;5074058;28;20387;-55
2023/05/05 02:44:35;;;;;;;17.10;10.25;;;6.00;59.70;;;;;;5073916;28;20079;-57
2023/05/05 02:47:03;;;;;;;11.00;8.55;;;6.00;55.80;;;;;;5073961;28;20066;-58
2023/05/05 02:49:29;;;;;;;15.07;8.88;;;5.90;53.90;;;;;;5073885;28;20617;-55
2023/05/05 02:51:56;;;;;;;17.98;9.32;;;5.90;58.00;;;;;;5073944;28;20059;-57
2023/05/05 02:54:22;;;;;;;12.23;8.85;;;5.90;60.00;;;;;;5072611;28;20359;-58
2023/05/05 02:56:50;;;;;;;12.07;9.45;;;5.90;55.80;;;;;;5073816;28;20047;-56
2023/05/05 02:59:35;;;;;;;14.40;9.07;;;5.80;56.70;;;;;;5073668;28;20031;-57
2023/05/05 03:02:27;;;;;;;12.52;9.82;;;5.80;61.10;;;;;;5072171;28;20396;-56
2023/05/05 03:05:03;;;;;;;15.25;10.50;;;5.70;59.60;;;;;;5073522;28;20032;-57
2023/05/05 03:07:48;;;;;;;14.80;10.55;;;5.70;61.80;;;;;;5073515;28;20028;-55
2023/05/05 03:10:20;;;;;;;15.70;11.07;;;5.70;66.10;;;;;;5073558;28;20031;-57
2023/05/05 03:12:52;;;;;;;18.48;9.52;;;5.70;63.20;;;;;;5073388;28;20633;-57
2023/05/05 03:15:21;;;;;;;15.63;9.77;;;5.70;64.00;;;;;;5072069;28;20578;-58
2023/05/05 03:17:49;;;;;;;18.05;9.75;;;5.70;66.50;;;;;;5073157;28;20029;-57
2023/05/05 03:20:15;;;;;;;18.30;10.63;;;5.60;67.00;;;;;;5073790;28;20020;-56
2023/05/05 03:22:41;;;;;;;13.55;9.70;;;5.60;65.30;;;;;;5073514;28;20082;-56
2023/05/05 03:25:07;;;;;;;17.50;11.02;;;5.60;68.90;;;;;;5072081;28;20466;-58
2023/05/05 03:27:32;;;;;;;27.15;11.13;;;5.60;67.50;;;;;;5072136;28;20364;-58
2023/05/05 03:29:58;;;;;;;21.15;10.10;;;5.60;68.50;;;;;;5071864;28;20035;-55
2023/05/05 03:32:24;;;;;;;21.27;10.88;;;5.60;67.20;;;;;;5072205;28;20100;-55
2023/05/05 03:34:50;;;;;;;28.92;10.55;;;5.60;69.60;;;;;;5072692;28;20037;-55
2023/05/05 03:37:16;;;;;;;16.80;9.57;;;5.60;66.30;;;;;;5072278;28;20029;-58
2023/05/05 03:39:41;;;;;;;19.08;9.73;;;5.60;66.50;;;;;;5072025;28;20024;-55
2023/05/05 03:42:07;;;;;;;21.73;10.35;;;5.60;66.10;;;;;;5072115;28;20021;-55
2023/05/05 03:44:33;;;;;;;21.90;9.95;;;5.60;63.60;;;;;;5071501;28;20333;-56
2023/05/05 03:46:58;;;;;;;14.18;8.82;;;5.60;69.40;;;;;;5073098;28;20468;-56
2023/05/05 03:49:24;;;;;;;14.75;9.65;;;5.50;68.50;;;;;;5072638;28;20032;-54
2023/05/05 03:51:50;;;;;;;15.75;10.32;;;5.50;71.50;;;;;;5071300;28;20056;-56
2023/05/05 03:54:15;;;;;;;14.23;10.15;;;5.50;66.50;;;;;;5071323;28;20089;-55
2023/05/05 03:56:41;;;;;;;17.92;11.40;;;5.40;67.70;;;;;;5072337;28;21409;-57
2023/05/05 03:59:07;;;;;;;38.25;14.10;;;5.40;74.70;;;;;;5072646;28;20066;-57
2023/05/05 04:01:34;;;;;;;27.38;10.00;;;5.40;75.40;;;;;;5072943;28;20028;-56
2023/05/05 04:04:00;;;;;;;19.25;11.02;;;5.40;78.70;;;;;;5072626;28;20211;-58
2023/05/05 04:06:26;;;;;;;15.80;11.20;;;5.40;79.20;;;;;;5070988;28;20025;-56
2023/05/05 04:08:52;;;;;;;25.15;9.82;;;5.40;78.70;;;;;;5072509;28;20028;-57
2023/05/05 04:11:18;;;;;;;21.33;11.05;;;5.40;78.10;;;;;;5072531;28;20086;-56
2023/05/05 04:13:43;;;;;;;25.27;10.55;;;5.50;77.60;;;;;;5072189;28;20028;-57
2023/05/05 04:16:09;;;;;;;18.70;10.25;;;5.50;75.00;;;;;;5072058;28;20058;-57
2023/05/05 04:18:35;;;;;;;20.20;10.88;;;5.50;73.70;;;;;;5072140;28;20107;-53
2023/05/05 04:21:00;;;;;;;13.02;10.35;;;5.60;73.70;;;;;;5072225;28;20016;-57
2023/05/05 04:23:26;;;;;;;18.42;11.00;;;5.60;75.40;;;;;;5072196;28;20418;-56
2023/05/05 04:25:52;;;;;;;19.33;12.85;;;5.60;75.30;;;;;;5070677;28;20021;-55
2023/05/05 04:28:19;;;;;;;14.80;10.90;;;5.60;77.50;;;;;;5072084;28;20036;-52
2023/05/05 04:30:45;;;;;;;16.67;11.32;;;5.70;78.50;;;;;;5070536;28;20380;-58
2023/05/05 04:33:11;;;;;;;25.95;11.73;;;5.70;77.20;;;;;;5071883;28;20032;-55
2023/05/05 04:35:36;;;;;;;15.68;11.02;;;5.80;79.80;;;;;;5071806;28;20029;-55
2023/05/05 04:38:02;;;;;;;16.05;12.02;;;5.80;73.80;;;;;;5070514;28;20021;-56
2023/05/05 04:40:28;;;;;;;16.30;10.88;;;5.90;78.60;;;;;;5071331;28;20078;-56
2023/05/05 04:42:53;;;;;;;20.30;10.98;;;5.90;81.00;;;;;;5071679;28;20021;-57
2023/05/05 04:45:19;;;;;;;20.45;12.23;;;5.90;79.20;;;;;;5072056;28;20077;-58
2023/05/05 04:47:45;;;;;;;23.45;13.35;;;6.00;79.80;;;;;;5071564;28;20047;-55
2023/05/05 04:50:12;;;;;;;31.27;13.05;;;6.10;77.80;;;;;;5070356;28;20031;-57
2023/05/05 04:52:38;;;;;;;25.42;12.15;;;6.20;75.10;;;;;;5071647;28;20033;-58
2023/05/05 04:55:04;;;;;;;22.58;11.23;;;6.30;76.20;;;;;;5071588;28;20697;-58
2023/05/05 04:57:30;;;;;;;16.98;10.77;;;6.40;76.30;;;;;;5071615;28;20035;-58
2023/05/05 04:59:56;;;;;;;21.48;11.50;;;6.40;72.20;;;;;;5071563;28;20017;-56
2023/05/05 05:02:21;;;;;;;19.88;11.80;;;6.60;65.80;;;;;;5071481;28;20423;-55
2023/05/05 05:04:47;;;;;;;16.98;11.65;;;6.70;66.30;;;;;;5071589;28;20032;-57
2023/05/05 05:07:15;;;;;;;20.58;11.18;;;6.70;59.30;;;;;;5071468;28;20025;-57
2023/05/05 05:09:41;;;;;;;16.48;9.75;;;6.80;51.70;;;;;;5071484;28;20107;-57
2023/05/05 05:12:08;;;;;;;13.77;9.85;;;6.80;45.90;;;;;;5071407;28;20655;-56
2023/05/05 05:14:37;;;;;;;22.23;9.65;;;6.90;42.60;;;;;;5071301;28;20040;-56
2023/05/05 05:17:04;;;;;;;20.17;12.25;;;7.00;50.20;;;;;;5071388;28;20024;-55
2023/05/05 05:19:29;;;;;;;13.98;9.48;;;7.20;37.60;;;;;;5071278;28;20021;-56
2023/05/05 05:21:55;;;;;;;9.48;7.28;;;7.40;25.20;;;;;;5071300;28;20020;-59
2023/05/05 05:24:21;;;;;;;20.48;8.88;;;7.60;15.50;;;;;;5071152;28;20463;-58
2023/05/05 05:26:47;;;;;;;13.35;8.27;;;7.60;8.10;;;;;;5069994;28;20024;-56
2023/05/05 05:29:12;;;;;;;12.65;7.85;;;7.70;9.40;;;;;;5071152;28;20086;-53
2023/05/05 05:31:38;;;;;;;12.07;8.35;;;7.90;8.40;;;;;;5071218;28;20083;-56
2023/05/05 05:34:04;;;;;;;17.35;8.82;;;8.00;9.50;;;;;;5071260;28;20052;-55
2023/05/05 05:36:30;;;;;;;19.83;9.27;;;8.10;7.40;;;;;;5071104;28;20059;-57
2023/05/05 05:38:56;;;;;;;19.65;10.10;;;8.20;11.00;;;;;;5071124;28;20023;-57
2023/05/05 05:41:22;;;;;;;18.83;8.82;;;8.30;12.90;;;;;;5071208;28;20017;-58
2023/05/05 05:43:47;;;;;;;17.63;10.52;;;8.40;5.60;;;;;;5071136;28;20490;-56
2023/05/05 05:46:14;;;;;;;24.00;9.15;;;8.60;9.70;;;;;;5071117;28;20526;-58
2023/05/05 05:48:40;;;;;;;21.05;10.27;;;8.70;5.60;;;;;;5071151;28;20510;-58
2023/05/05 05:51:05;;;;;;;16.83;9.57;;;8.90;7.70;;;;;;5072810;28;20028;-57
2023/05/05 05:53:31;;;;;;;14.25;8.43;;;9.00;1.00;;;;;;5074551;28;20028;-57
2023/05/05 05:56:00;;;;;;;20.15;10.15;;;9.20;3.50;;;;;;5074818;28;20029;-57
2023/05/05 05:58:26;;;;;;;16.52;8.95;;;9.40;6.40;;;;;;5074873;28;20021;-57
2023/05/05 06:00:51;;;;;;;19.52;8.70;;;9.50;1.00;;;;;;5075121;28;20028;-55
2023/05/05 06:03:17;;;;;;;18.20;9.68;;;9.70;1.00;;;;;;5074428;28;20426;-58
2023/05/05 06:05:45;;;;;;;12.40;8.48;;;9.90;1.00;;;;;;5075914;28;20104;-57
2023/05/05 06:08:10;;;;;;;13.32;9.10;;;10.20;1.00;;;;;;5075789;28;20103;-58
2023/05/05 06:10:36;;;;;;;17.00;8.52;;;10.40;1.00;;;;;;5074595;28;20017;-58
2023/05/05 06:13:01;;;;;;;15.38;8.30;;;10.60;1.00;;;;;;5072912;28;20021;-56
2023/05/05 06:15:27;;;;;;;20.38;8.50;;;10.70;1.00;;;;;;5073905;28;20039;-58
2023/05/05 06:17:53;;;;;;;11.38;8.20;;;10.90;1.00;;;;;;5074048;28;20028;-58
2023/05/05 06:20:18;;;;;;;10.90;8.10;;;11.10;1.00;;;;;;5074498;28;20468;-57
2023/05/05 06:22:44;;;;;;;12.57;7.88;;;11.20;1.00;;;;;;5074205;28;20407;-58
2023/05/05 06:25:10;;;;;;;15.10;7.30;;;11.40;1.00;;;;;;5074378;28;20363;-59
2023/05/05 06:27:35;;;;;;;11.07;7.45;;;11.70;1.00;;;;;;5074309;28;20040;-59
2023/05/05 06:30:01;;;;;;;18.15;7.22;;;11.90;1.00;;;;;;5073990;28;20074;-59
2023/05/05 06:32:26;;;;;;;10.23;5.28;;;12.00;1.00;;;;;;5074149;28;20021;-59
2023/05/05 06:34:52;;;;;;;8.10;5.05;;;12.00;99.90;;;;;;5074081;28;20066;-59
2023/05/05 06:37:18;;;;;;;7.28;5.72;;;12.10;99.90;;;;;;5074193;28;20100;-59
2023/05/05 06:39:43;;;;;;;16.60;5.80;;;12.30;99.90;;;;;;5073975;28;20523;-59
2023/05/05 06:42:09;;;;;;;10.98;5.22;;;12.50;99.90;;;;;;5073974;28;20067;-60
2023/05/05 06:44:35;;;;;;;7.15;5.22;;;12.70;20.20;;;;;;5073882;28;20032;-60
2023/05/05 06:47:02;;;;;;;7.25;5.32;;;12.80;1.00;;;;;;5072554;28;20040;-60
2023/05/05 06:49:27;;;;;;;5.43;4.80;;;12.90;1.00;;;;;;5073804;28;20077;-59
2023/05/05 06:51:53;;;;;;;10.80;5.20;;;13.10;1.00;;;;;;5072508;28;20028;-59
2023/05/05 06:54:19;;;;;;;8.77;5.22;;;13.20;1.00;;;;;;5072638;28;20043;-59
2023/05/05 06:56:45;;;;;;;8.48;5.07;;;13.30;1.00;;;;;;5073439;28;20039;-60
2023/05/05 06:59:11;;;;;;;9.30;5.30;;;13.30;99.90;;;;;;5072486;28;20073;-59
2023/05/05 07:01:36;;;;;;;6.70;5.03;;;13.40;99.90;;;;;;5073490;28;20128;-60
2023/05/05 07:04:02;;;;;;;9.73;5.93;;;13.50;99.90;;;;;;5073093;28;20475;-60
2023/05/05 07:06:28;;;;;;;18.50;5.10;;;13.50;1.00;;;;;;5073723;28;20028;-58
2023/05/05 07:08:53;;;;;;;9.95;5.18;;;13.60;17.30;;;;;;5073531;28;20070;-60
2023/05/05 07:11:19;;;;;;;9.20;4.75;;;13.90;1.00;;;;;;5072233;28;20036;-57
2023/05/05 07:13:45;;;;;;;7.35;5.43;;;14.10;64.70;;;;;;5073386;28;20035;-60
2023/05/05 07:16:10;;;;;;;10.45;5.43;;;14.40;1.00;;;;;;5073147;28;20480;-59
2023/05/05 07:18:36;;;;;;;21.42;12.38;;;14.60;99.90;;;;;;5073311;28;20384;-59
2023/05/05 07:21:04;;;;;;;15.90;9.13;;;14.70;17.50;;;;;;5073384;28;20024;-59
2023/05/05 07:23:30;;;;;;;8.63;5.20;;;14.70;99.90;;;;;;5073001;28;20545;-59
2023/05/05 07:25:56;;;;;;;12.27;6.82;;;14.80;1.00;;;;;;5073201;28;20033;-59
2023/05/05 07:28:21;;;;;;;8.68;5.00;;;15.00;19.70;;;;;;5073138;28;20074;-60
2023/05/05 07:30:47;;;;;;;18.00;5.18;;;15.20;99.90;;;;;;5073389;28;20029;-60
2023/05/05 07:33:13;;;;;;;7.05;5.40;;;15.20;1.00;;;;;;5072997;28;20040;-59
2023/05/05 07:35:39;;;;;;;11.68;5.75;;;15.40;1.00;;;;;;5072668;28;20082;-59
2023/05/05 07:38:05;;;;;;;10.50;6.25;;;15.50;1.00;;;;;;5073005;28;20070;-59
2023/05/05 07:40:32;;;;;;;8.23;5.25;;;15.60;99.90;;;;;;5073312;28;20096;-59
2023/05/05 07:42:58;;;;;;;8.38;6.28;;;15.70;1.00;;;;;;5073021;28;20364;-59
2023/05/05 07:45:24;;;;;;;12.95;6.07;;;15.90;1.00;;;;;;5072786;28;20025;-60
2023/05/05 07:47:49;;;;;;;8.80;5.90;;;15.90;99.90;;;;;;5072839;28;20028;-59
2023/05/05 07:50:15;;;;;;;7.95;6.18;;;16.10;1.00;;;;;;5072776;28;20029;-59
2023/05/05 07:52:41;;;;;;;19.00;6.57;;;16.30;14.90;;;;;;5072625;28;20029;-59
2023/05/05 07:55:06;;;;;;;9.68;6.53;;;16.30;96.40;;;;;;5072505;28;20044;-58
2023/05/05 07:57:32;;;;;;;13.80;6.18;;;16.60;99.90;;;;;;5072490;28;20070;-59
2023/05/05 07:59:58;;;;;;;7.97;5.32;;;16.80;1.00;;;;;;5071084;28;20529;-58
2023/05/05 08:02:23;;;;;;;8.32;5.50;;;16.90;99.90;;;;;;5072074;28;20079;-59
2023/05/05 08:04:49;;;;;;;5.68;5.07;;;17.00;1.00;;;;;;5072606;28;20027;-59
2023/05/05 08:07:15;;;;;;;81.10;53.38;;;17.20;99.90;;;;;;5072237;28;20021;-60
2023/05/05 08:09:40;;;;;;;6.57;5.82;;;17.20;99.90;;;;;;5072133;28;20021;-59
2023/05/05 08:12:06;;;;;;;12.30;5.72;;;17.40;99.90;;;;;;5072357;28;20712;-59
2023/05/05 08:14:32;;;;;;;15.90;7.30;;;17.50;1.00;;;;;;5071363;28;20025;-59
2023/05/05 08:16:58;;;;;;;10.20;6.88;;;17.60;99.90;;;;;;5072119;28;20028;-59
2023/05/05 08:19:24;;;;;;;15.57;7.13;;;17.70;1.00;;;;;;5071886;28;20017;-58
2023/05/05 08:21:50;;;;;;;11.13;8.40;;;17.80;1.00;;;;;;5072281;28;20025;-59
2023/05/05 08:24:15;;;;;;;12.30;7.68;;;17.70;99.90;;;;;;5072190;28;20023;-59
2023/05/05 08:26:41;;;;;;;13.88;7.18;;;17.90;99.90;;;;;;5071945;28;20024;-59
2023/05/05 08:29:07;;;;;;;11.20;7.40;;;18.10;1.00;;;;;;5072129;28;20020;-60
2023/05/05 08:31:34;;;;;;;13.52;8.98;;;18.20;1.00;;;;;;5071751;28;20113;-59
2023/05/05 08:33:59;;;;;;;9.23;6.90;;;18.20;99.90;;;;;;5072248;28;20028;-60
2023/05/05 08:36:26;;;;;;;8.38;6.95;;;18.50;1.00;;;;;;5071649;28;20112;-60
2023/05/05 08:38:51;;;;;;;15.93;6.55;;;18.50;99.90;;;;;;5071295;28;20031;-59
2023/05/05 08:41:18;;;;;;;17.98;7.82;;;18.60;99.90;;;;;;5071344;28;20402;-59
2023/05/05 08:43:46;;;;;;;15.48;7.70;;;18.70;1.00;;;;;;5071181;28;20040;-59
2023/05/05 08:46:12;;;;;;;12.45;6.85;;;18.80;78.20;;;;;;5071272;28;20127;-59
2023/05/05 08:48:42;;;;;;;11.93;7.45;;;18.90;99.90;;;;;;5071652;28;20035;-59
2023/05/05 08:51:12;;;;;;;11.88;7.82;;;19.00;1.00;;;;;;5071657;28;20052;-59
2023/05/05 08:53:52;;;;;;;10.88;7.40;;;19.10;92.50;;;;;;5071217;28;20031;-59
2023/05/05 08:56:24;;;;;;;11.52;6.97;;;19.10;1.00;;;;;;5071539;28;20094;-59
2023/05/05 08:58:51;;;;;;;12.95;6.30;;;19.40;23.20;;;;;;5070801;28;20134;-59
2023/05/05 09:01:17;;;;;;;10.45;7.03;;;19.50;99.90;;;;;;5071585;28;20029;-59
2023/05/05 09:03:43;;;;;;;12.15;6.72;;;19.20;99.90;;;;;;5071181;28;20050;-59
2023/05/05 09:06:09;;;;;;;19.05;7.05;;;19.10;1.00;;;;;;5071359;28;20104;-59
2023/05/05 09:08:38;;;;;;;16.40;7.50;;;19.20;1.00;;;;;;5071453;28;20417;-59
2023/05/05 09:11:05;;;;;;;11.13;7.38;;;19.20;1.00;;;;;;5071601;28;20107;-59
2023/05/05 09:13:31;;;;;;;12.30;6.10;;;19.40;1.00;;;;;;5071024;28;20023;-59
2023/05/05 09:15:57;;;;;;;11.05;6.57;;;19.50;1.00;;;;;;5071527;28;20108;-59
2023/05/05 09:18:23;;;;;;;10.48;6.05;;;19.70;99.90;;;;;;5070872;28;20027;-60
2023/05/05 09:20:49;;;;;;;7.53;6.57;;;20.00;1.00;;;;;;5071517;28;20021;-60
2023/05/05 09:23:17;;;;;;;13.27;6.90;;;20.30;99.90;;;;;;5071532;28;20015;-59
2023/05/05 09:25:48;;;;;;;8.18;6.18;;;20.70;99.90;;;;;;5072128;28;20025;-60
2023/05/05 09:28:16;;;;;;;11.50;6.28;;;20.90;1.00;;;;;;5075368;28;20027;-59
2023/05/05 09:30:45;;;;;;;9.45;6.32;;;21.20;1.00;;;;;;5075347;28;20371;-60
2023/05/05 09:33:11;;;;;;;13.55;7.43;;;21.40;62.50;;;;;;5073770;28;20040;-60
2023/05/05 09:35:48;;;;;;;7.90;6.57;;;21.50;1.00;;;;;;5074838;28;20026;-59
2023/05/05 09:38:14;;;;;;;7.60;5.90;;;21.40;99.90;;;;;;5075091;28;20028;-58
2023/05/05 09:40:52;;;;;;;9.77;6.53;;;21.60;1.00;;;;;;5073630;28;20089;-59
2023/05/05 09:43:21;;;;;;;12.85;6.63;;;21.90;99.90;;;;;;5073914;28;20067;-59
2023/05/05 09:45:50;;;;;;;10.52;6.13;;;21.90;99.90;;;;;;5074925;28;20063;-59
2023/05/05 09:48:30;;;;;;;17.58;6.85;;;22.10;99.90;;;;;;5074180;28;20063;-60
2023/05/05 09:50:57;;;;;;;16.10;5.90;;;22.60;99.50;;;;;;5073834;28;20078;-59
2023/05/05 09:53:23;;;;;;;15.52;5.95;;;22.80;7.30;;;;;;5074009;28;20111;-59
2023/05/05 09:55:57;;;;;;;11.95;6.10;;;22.70;24.60;;;;;;5074020;28;20025;-59
2023/05/05 09:58:24;;;;;;;12.63;6.07;;;22.90;1.00;;;;;;5074237;28;20032;-60
2023/05/05 10:00:51;;;;;;;7.60;5.82;;;23.10;1.00;;;;;;5074624;28;20053;-60
2023/05/05 10:03:17;;;;;;;7.90;5.68;;;23.20;1.00;;;;;;5074769;28;20564;-59
2023/05/05 10:05:49;;;;;;;13.27;6.10;;;23.40;1.00;;;;;;5074347;28;20022;-60
2023/05/05 10:08:16;;;;;;;15.82;6.43;;;23.80;99.90;;;;;;5073243;28;20382;-60
2023/05/05 10:11:05;;;;;;;8.32;7.10;;;23.70;99.90;;;;;;5073778;28;20471;-60
2023/05/05 10:13:35;;;;;;;9.02;6.43;;;23.70;99.90;;;;;;5073131;28;20131;-60
2023/05/05 10:16:03;;;;;;;11.75;5.75;;;23.80;99.90;;;;;;5074746;28;20043;-60
2023/05/05 10:18:31;;;;;;;15.93;5.97;;;24.00;99.90;;;;;;5073696;28;20020;-60
2023/05/05 10:20:57;;;;;;;11.38;6.85;;;23.90;99.90;;;;;;5074435;28;20123;-59
2023/05/05 10:23:26;;;;;;;15.52;7.00;;;23.70;99.90;;;;;;5074332;28;20009;-60
2023/05/05 10:26:03;;;;;;;12.50;7.82;;;23.80;99.90;;;;;;5074265;28;20016;-58
2023/05/05 10:28:35;;;;;;;8.93;7.55;;;23.60;99.90;;;;;;5074262;28;20052;-60
2023/05/05 10:31:02;;;;;;;11.73;7.60;;;23.80;1.00;;;;;;5074190;28;20016;-60
2023/05/05 10:33:36;;;;;;;16.00;8.18;;;24.00;1.00;;;;;;5059090;28;20063;-59
2023/05/05 10:36:04;;;;;;;19.42;8.80;;;24.10;1.00;;;;;;5041324;28;20029;-60
2023/05/05 10:38:31;;;;;;;15.55;8.90;;;24.20;1.00;;;;;;5042090;28;20452;-60
2023/05/05 10:40:59;;;;;;;8.95;8.05;;;24.10;99.90;;;;;;5043455;28;20053;-59
2023/05/05 10:43:29;;;;;;;11.43;8.15;;;24.30;1.00;;;;;;5041986;28;20029;-59
2023/05/05 10:45:55;;;;;;;10.15;8.10;;;24.70;99.90;;;;;;5043077;28;20032;-60
2023/05/05 10:48:42;;;;;;;12.88;8.70;;;24.70;99.90;;;;;;5042831;28;20136;-60
2023/05/05 10:51:18;;;;;;;11.48;7.40;;;24.70;1.00;;;;;;5043637;28;20032;-60
2023/05/05 10:53:55;;;;;;;11.23;7.72;;;24.80;1.00;;;;;;5042466;28;20399;-57
2023/05/05 10:56:32;;;;;;;12.45;8.05;;;24.50;99.90;;;;;;5043165;28;20025;-57
2023/05/05 10:58:58;;;;;;;10.60;8.38;;;24.90;1.00;;;;;;5043107;28;20024;-56
2023/05/05 11:01:34;;;;;;;10.80;7.65;;;24.80;99.90;;;;;;5042196;28;20090;-57
2023/05/05 11:04:16;;;;;;;18.63;9.05;;;24.90;99.90;;;;;;5043131;28;20029;-57
2023/05/05 11:07:07;;;;;;;12.40;8.23;;;25.00;99.90;;;;;;5042262;28;20035;-57
2023/05/05 11:09:40;;;;;;;17.83;9.68;;;25.30;99.90;;;;;;5042894;28;20094;-58
2023/05/05 11:12:07;;;;;;;15.85;8.82;;;25.30;99.90;;;;;;5042825;28;20600;-57
2023/05/05 11:14:33;;;;;;;12.43;8.43;;;25.20;99.90;;;;;;5041698;28;20049;-57
2023/05/05 11:16:59;;;;;;;12.60;8.93;;;25.40;99.90;;;;;;5042220;28;20033;-57
2023/05/05 11:19:45;;;;;;;15.05;9.05;;;25.30;99.90;;;;;;5041379;28;20033;-57
2023/05/05 11:22:11;;;;;;;14.80;8.50;;;25.60;99.90;;;;;;5042042;28;20446;-57
2023/05/05 11:24:38;;;;;;;53.75;18.25;;;25.70;99.90;;;;;;5042349;28;20021;-57
2023/05/05 11:27:04;;;;;;;15.82;9.80;;;25.70;99.90;;;;;;5041112;28;20040;-57
2023/05/05 11:30:08;;;;;;;11.27;8.88;;;26.00;99.90;;;;;;5041843;28;20044;-57
2023/05/05 11:32:33;;;;;;;14.48;8.57;;;25.70;99.90;;;;;;5042331;28;20033;-57
2023/05/05 11:35:00;;;;;;;11.00;8.52;;;26.10;99.90;;;;;;5042005;28;20037;-56
2023/05/05 11:37:27;;;;;;;13.60;8.63;;;26.60;99.90;;;;;;5042076;28;20961;-57
2023/05/05 11:39:58;;;;;;;16.65;8.70;;;26.40;68.70;;;;;;5042461;28;20101;-53
2023/05/05 11:42:28;;;;;;;14.90;9.93;;;26.40;98.40;;;;;;5041967;28;20108;-57
2023/05/05 11:44:55;;;;;;;13.68;9.93;;;26.30;98.30;;;;;;5042460;28;20029;-57
2023/05/05 11:47:20;;;;;;;30.63;8.77;;;26.80;1.00;;;;;;5040845;28;20037;-57
2023/05/05 11:49:46;;;;;;;13.20;8.55;;;27.90;33.70;;;;;;5041692;28;20045;-58
2023/05/05 11:52:13;;;;;;;14.73;7.30;;;28.60;1.00;;;;;;5041591;28;20040;-57
2023/05/05 11:54:47;;;;;;;13.20;7.80;;;29.00;1.00;;;;;;5041166;28;22239;-58
2023/05/05 11:57:14;;;;;;;17.55;7.35;;;29.70;1.00;;;;;;5041579;28;20341;-58
2023/05/05 11:59:52;;;;;;;10.95;7.28;;;30.40;1.00;;;;;;5041586;28;20041;-57
2023/05/05 12:02:19;;;;;;;9.73;6.70;;;30.40;99.90;;;;;;5041738;28;20033;-57
2023/05/05 12:04:45;;;;;;;13.27;7.88;;;30.70;99.90;;;;;;5041254;28;20104;-59
2023/05/05 12:07:18;;;;;;;13.90;8.80;;;31.30;99.90;;;;;;5041695;28;20041;-61
2023/05/05 12:09:45;;;;;;;17.20;8.75;;;31.50;99.90;;;;;;5045486;28;20079;-58
2023/05/05 12:12:11;;;;;;;11.43;8.13;;;31.70;99.90;;;;;;5051875;28;20377;-58
2023/05/05 12:15:04;;;;;;;16.33;8.23;;;31.40;99.90;;;;;;5051453;28;20484;-58
2023/05/05 12:17:43;;;;;;;10.55;7.53;;;31.70;99.90;;;;;;5059168;28;20049;-58
2023/05/05 12:20:09;;;;;;;18.50;6.97;;;30.80;99.90;;;;;;5079428;28;20033;-58
2023/05/05 12:22:35;;;;;;;12.05;6.78;;;30.80;99.90;;;;;;5079257;28;20033;-58
2023/05/05 12:25:03;;;;;;;10.75;6.85;;;30.70;99.90;;;;;;5071077;28;20019;-58
2023/05/05 12:27:29;;;;;;;10.25;7.20;;;31.10;99.90;;;;;;5072193;28;20353;-58
2023/05/05 12:30:08;;;;;;;7.10;6.10;;;31.60;99.90;;;;;;5071929;28;20064;-58
2023/05/05 12:32:34;;;;;;;9.05;7.03;;;32.30;99.90;;;;;;5071813;28;20032;-58
2023/05/05 12:35:02;;;;;;;11.13;7.32;;;32.90;99.90;;;;;;5071807;28;20016;-59
2023/05/05 12:37:28;;;;;;;9.77;7.63;;;32.60;99.90;;;;;;5070297;28;20082;-58
2023/05/05 12:39:53;;;;;;;11.70;8.57;;;32.80;99.90;;;;;;5071463;28;20183;-58
2023/05/05 12:42:20;;;;;;;12.20;7.72;;;32.60;99.90;;;;;;5070194;28;20131;-58
2023/05/05 12:44:47;;;;;;;11.45;9.05;;;32.10;99.90;;;;;;5070461;28;20021;-58
2023/05/05 12:47:13;;;;;;;8.82;7.78;;;31.00;99.90;;;;;;5070199;28;20028;-58
2023/05/05 12:49:45;;;;;;;19.73;7.55;;;29.80;99.90;;;;;;5070174;28;20031;-58